createdAt,value
2023-01-15T00:03:02.716Z,5.00
2023-01-15T00:08:05.006Z,5.00
2023-01-15T00:13:06.809Z,5.00
2023-01-15T00:18:08.684Z,5.00
2023-01-15T00:23:30.455Z,5.00
2023-01-15T00:28:32.385Z,5.00
2023-01-15T00:33:34.209Z,5.00
2023-01-15T00:38:36.102Z,5.00
2023-01-15T00:43:37.920Z,5.00
2023-01-15T00:48:40.643Z,5.00
2023-01-15T00:53:42.472Z,5.00
2023-01-15T00:58:44.392Z,5.00
2023-01-15T01:03:52.542Z,5.00
2023-01-15T01:08:55.361Z,5.00
2023-01-15T01:13:57.260Z,5.00
2023-01-15T01:19:01.809Z,5.00
2023-01-15T01:24:04.096Z,5.00
2023-01-15T01:29:06.613Z,5.00
2023-01-15T01:34:10.741Z,5.00
2023-01-15T01:39:15.232Z,5.10
2023-01-15T01:44:32.331Z,5.10
2023-01-15T01:49:35.213Z,5.20
2023-01-15T01:54:38.706Z,5.20
2023-01-15T01:59:40.699Z,5.20
2023-01-15T02:04:42.933Z,5.20
2023-01-15T02:09:46.040Z,5.30
2023-01-15T02:15:05.753Z,5.20
2023-01-15T02:20:29.327Z,5.20
2023-01-15T02:25:40.461Z,5.20
2023-01-15T02:30:46.041Z,5.20
2023-01-15T02:35:54.932Z,5.20
2023-01-15T02:41:00.148Z,5.20
2023-01-15T02:46:04.032Z,5.10
2023-01-15T02:51:10.307Z,5.10
2023-01-15T02:56:15.727Z,5.00
2023-01-15T03:01:20.657Z,5.00
2023-01-15T03:06:41.302Z,5.00
2023-01-15T03:12:08.337Z,5.00
2023-01-15T03:17:23.782Z,5.00
2023-01-15T03:22:29.244Z,5.00
2023-01-15T03:27:31.176Z,5.00
2023-01-15T03:32:33.193Z,5.00
2023-01-15T03:37:35.065Z,5.00
2023-01-15T03:43:11.272Z,5.10
2023-01-15T03:48:31.433Z,5.00
2023-01-15T03:53:48.359Z,5.10
2023-01-15T03:59:09.545Z,5.10
2023-01-15T04:04:13.315Z,5.10
2023-01-15T04:09:15.198Z,5.10
2023-01-15T04:14:17.072Z,5.10
2023-01-15T04:19:18.920Z,5.10
2023-01-15T04:24:20.736Z,5.00
2023-01-15T04:29:22.683Z,5.00
2023-01-15T04:34:26.976Z,5.00
2023-01-15T04:39:28.921Z,5.00
2023-01-15T04:44:32.354Z,5.00
2023-01-15T04:49:34.482Z,4.90
2023-01-15T04:54:36.397Z,4.80
2023-01-15T04:59:38.224Z,4.80
2023-01-15T05:04:40.099Z,4.80
2023-01-15T05:09:42.008Z,4.80
2023-01-15T05:14:43.935Z,4.90
2023-01-15T05:19:45.803Z,4.80
2023-01-15T05:24:47.646Z,4.90
2023-01-15T05:29:49.528Z,4.90
2023-01-15T05:34:51.450Z,4.90
2023-01-15T05:39:53.278Z,5.00
2023-01-15T05:44:55.334Z,5.00
2023-01-15T05:49:57.321Z,4.90
2023-01-15T05:54:59.180Z,4.90
2023-01-15T06:00:01.083Z,4.90
2023-01-15T06:05:03.030Z,4.90
2023-01-15T06:10:05.279Z,4.90
2023-01-15T06:15:07.754Z,4.90
2023-01-15T06:20:11.774Z,4.90
2023-01-15T06:25:14.455Z,4.90
2023-01-15T06:30:16.701Z,4.90
2023-01-15T06:35:19.128Z,4.90
2023-01-15T06:40:21.713Z,4.80
2023-01-15T06:45:42.175Z,4.80
2023-01-15T06:50:44.026Z,4.80
2023-01-15T06:55:46.188Z,4.80
2023-01-15T07:00:55.117Z,4.80
2023-01-15T07:05:57.118Z,4.80
2023-01-15T07:11:05.975Z,4.80
2023-01-15T07:16:26.887Z,4.70
2023-01-15T07:21:29.331Z,4.70
2023-01-15T07:26:31.168Z,4.60
2023-01-15T07:31:33.254Z,4.50
2023-01-15T07:36:35.185Z,4.50
2023-01-15T07:41:58.474Z,4.50
2023-01-15T07:47:19.259Z,4.40
2023-01-15T07:52:22.122Z,4.40
2023-01-15T07:57:24.035Z,4.40
2023-01-15T08:02:27.231Z,4.30
2023-01-15T08:07:29.110Z,4.30
2023-01-15T08:12:49.348Z,4.30
2023-01-15T08:17:51.862Z,4.30
2023-01-15T08:22:53.865Z,4.30
2023-01-15T08:27:56.526Z,4.30
2023-01-15T08:33:03.265Z,4.20
2023-01-15T08:38:08.725Z,4.20
2023-01-15T08:43:10.554Z,4.30
2023-01-15T08:48:12.370Z,4.30
2023-01-15T08:53:14.264Z,4.30
2023-01-15T08:58:16.837Z,4.40
2023-01-15T09:03:19.807Z,4.30
2023-01-15T09:08:21.633Z,4.40
2023-01-15T09:13:23.469Z,4.40
2023-01-15T09:18:25.436Z,4.40
2023-01-15T09:23:27.309Z,4.40
2023-01-15T09:28:29.615Z,4.40
2023-01-15T09:33:31.434Z,4.50
2023-01-15T09:38:35.162Z,4.50
2023-01-15T09:43:59.366Z,4.50
2023-01-15T09:49:36.798Z,4.60
2023-01-15T09:54:54.046Z,4.70
2023-01-15T10:00:03.783Z,4.70
2023-01-15T10:05:12.677Z,4.80
2023-01-15T10:10:23.222Z,4.80
2023-01-15T10:15:45.792Z,4.80
2023-01-15T10:21:05.278Z,4.80
2023-01-15T10:26:40.669Z,4.90
2023-01-15T10:31:50.865Z,4.90
2023-01-15T10:37:21.245Z,4.90
2023-01-15T10:42:42.322Z,4.90
2023-01-15T10:47:45.720Z,4.90
2023-01-15T10:52:51.116Z,5.00
2023-01-15T10:58:09.822Z,5.00
2023-01-15T11:03:18.012Z,5.00
2023-01-15T11:14:24.600Z,5.00
2023-01-15T11:19:37.427Z,5.00
2023-01-15T11:24:47.069Z,5.00
2023-01-15T11:29:54.793Z,5.00
2023-01-15T11:35:14.937Z,4.90
2023-01-15T11:40:21.115Z,4.90
2023-01-15T11:45:43.340Z,4.90
2023-01-15T11:51:09.348Z,4.90
2023-01-15T11:56:15.355Z,4.80
2023-01-15T12:01:35.641Z,4.80
2023-01-15T12:06:40.124Z,4.80
2023-01-15T12:12:16.630Z,4.80
2023-01-15T12:17:28.248Z,4.80
2023-01-15T12:22:49.825Z,4.80
2023-01-15T12:27:58.040Z,4.80
2023-01-15T12:33:07.545Z,4.80
2023-01-15T12:38:20.633Z,4.80
2023-01-15T12:43:45.599Z,4.80
2023-01-15T12:48:54.586Z,4.80
2023-01-15T12:54:01.394Z,4.80
2023-01-15T12:59:12.066Z,4.80
2023-01-15T13:04:23.059Z,4.90
2023-01-15T13:09:34.625Z,4.90
2023-01-15T13:14:36.552Z,4.90
2023-01-15T13:20:10.730Z,4.90
2023-01-15T13:25:52.682Z,4.90
2023-01-15T13:31:25.957Z,4.90
2023-01-15T13:36:40.589Z,4.90
2023-01-15T13:42:01.107Z,4.90
2023-01-15T13:47:12.476Z,5.00
2023-01-15T13:52:31.350Z,4.90
2023-01-15T13:57:36.109Z,5.00
2023-01-15T14:02:38.980Z,5.00
2023-01-15T14:07:42.276Z,5.00
2023-01-15T14:12:50.387Z,5.00
2023-01-15T14:18:08.724Z,4.90
2023-01-15T14:23:33.370Z,4.90
2023-01-15T14:28:53.465Z,4.90
2023-01-15T14:34:03.992Z,4.90
2023-01-15T14:39:22.379Z,4.90
2023-01-15T14:44:33.544Z,4.90
2023-01-15T14:49:50.034Z,4.90
2023-01-15T14:54:53.232Z,4.80
2023-01-15T15:00:04.010Z,4.80
2023-01-15T15:05:11.029Z,4.80
2023-01-15T15:10:46.467Z,4.80
2023-01-15T15:15:58.191Z,4.90
2023-01-15T15:21:19.899Z,4.90
2023-01-15T15:26:29.586Z,4.90
2023-01-15T15:31:36.322Z,5.00
2023-01-15T15:36:39.740Z,5.00
2023-01-15T15:42:03.146Z,5.00
2023-01-15T15:47:40.400Z,5.10
2023-01-15T15:52:44.462Z,5.10
2023-01-15T15:57:59.627Z,5.10
2023-01-15T16:03:05.869Z,5.20
2023-01-15T16:08:18.051Z,5.30
2023-01-15T16:13:28.926Z,5.30
2023-01-15T16:18:44.720Z,5.30
2023-01-15T16:24:02.555Z,5.30
2023-01-15T16:29:06.782Z,5.30
2023-01-15T16:34:18.111Z,5.40
2023-01-15T16:39:44.833Z,5.70
2023-01-15T16:44:52.637Z,5.80
2023-01-15T16:50:42.326Z,5.90
2023-01-15T16:55:45.590Z,5.90
2023-01-15T17:00:57.691Z,6.00
2023-01-15T17:06:17.100Z,6.00
2023-01-15T17:11:31.040Z,6.00
2023-01-15T17:16:32.893Z,6.00
2023-01-15T17:21:39.785Z,6.00
2023-01-15T17:26:41.681Z,6.10
2023-01-15T17:31:45.749Z,6.10
2023-01-15T17:36:48.517Z,6.10
2023-01-15T17:41:50.401Z,6.10
2023-01-15T17:46:52.215Z,6.10
2023-01-15T17:51:56.152Z,6.10
2023-01-15T17:57:16.645Z,6.10
2023-01-15T18:02:38.451Z,6.10
2023-01-15T18:07:42.345Z,6.10
2023-01-15T18:12:44.389Z,6.20
2023-01-15T18:17:46.882Z,6.20
2023-01-15T18:22:48.766Z,6.20
2023-01-15T18:27:51.394Z,6.10
2023-01-15T18:32:54.677Z,6.10
2023-01-15T18:37:57.626Z,6.10
2023-01-15T18:43:18.085Z,6.10
2023-01-15T18:48:19.992Z,6.10
2023-01-15T18:53:22.760Z,6.00
2023-01-15T18:58:26.651Z,6.00
2023-01-15T19:03:28.676Z,6.00
2023-01-15T19:08:41.929Z,6.00
2023-01-15T19:14:06.799Z,6.00
2023-01-15T19:19:08.825Z,6.00
2023-01-15T19:24:36.923Z,5.90
2023-01-15T19:29:42.880Z,5.90
2023-01-15T19:34:45.143Z,5.80
2023-01-15T19:39:58.926Z,5.80
2023-01-15T19:45:53.138Z,5.80
2023-01-15T19:50:55.400Z,5.70
2023-01-15T19:55:57.569Z,5.70
2023-01-15T20:01:00.240Z,5.70
2023-01-15T20:06:02.213Z,5.70
2023-01-15T20:11:08.131Z,5.70
2023-01-15T20:16:17.516Z,5.70
2023-01-15T20:21:19.617Z,5.70
2023-01-15T20:26:24.315Z,5.60
2023-01-15T20:31:26.423Z,5.60
2023-01-15T20:36:33.507Z,5.60
2023-01-15T20:41:54.020Z,5.60
2023-01-15T20:46:56.306Z,5.60
2023-01-15T20:51:58.502Z,5.60
2023-01-15T20:57:00.381Z,5.50
2023-01-15T21:02:02.269Z,5.50
2023-01-15T21:07:04.869Z,5.50
2023-01-15T21:12:06.738Z,5.40
2023-01-15T21:17:09.583Z,5.40
2023-01-15T21:22:11.763Z,5.40
2023-01-15T21:27:14.782Z,5.30
2023-01-15T21:32:16.734Z,5.30
2023-01-15T21:37:18.588Z,5.30
2023-01-15T21:42:40.103Z,5.30
2023-01-15T21:47:41.929Z,5.30
2023-01-15T21:52:43.958Z,5.20
2023-01-15T21:57:49.027Z,5.20
2023-01-15T22:02:51.000Z,5.20
2023-01-15T22:07:56.426Z,5.10
2023-01-15T22:13:02.869Z,5.10
2023-01-15T22:18:07.272Z,5.10
2023-01-15T22:23:09.166Z,5.10
2023-01-15T22:28:11.003Z,5.00
2023-01-15T22:33:13.887Z,5.00
2023-01-15T22:38:16.222Z,5.00
2023-01-15T22:43:18.307Z,5.00
2023-01-15T22:48:20.167Z,4.90
2023-01-15T22:53:22.000Z,4.90
2023-01-15T22:58:24.638Z,4.90
2023-01-15T23:03:26.476Z,4.90
2023-01-15T23:08:32.180Z,4.90
2023-01-15T23:13:34.034Z,4.80
2023-01-15T23:18:36.126Z,4.80
2023-01-15T23:23:38.371Z,4.80
2023-01-15T23:28:40.810Z,4.80
2023-01-15T23:33:42.853Z,4.80
2023-01-15T23:38:48.538Z,4.80
2023-01-15T23:44:08.626Z,4.70
2023-01-15T23:49:11.913Z,4.70
2023-01-15T23:54:13.745Z,4.60
2023-01-15T23:59:15.769Z,4.60
